Time;durP1;ratioP1;P1;durP2;ratioP2;P2;SDS_P1;SDS_P2;PMS_P1;PMS_P2;Temp;Humidity;BMP_temperature;BMP_pressure;BME280_temperature;BME280_humidity;BME280_pressure;Samples;Min_cycle;Max_cycle;Signal;HPM_P1;HPM_P2
2023/05/15 00:01:23;;;;;;;4.60;2.78;;;;;;;;;;5021906;28;20044;-79
2023/05/15 00:03:50;;;;;;;3.58;2.70;;;;;;;;;;5022092;28;20057;-78
2023/05/15 00:06:16;;;;;;;4.32;2.55;;;;;;;;;;5021740;28;20033;-78
2023/05/15 00:08:41;;;;;;;4.20;2.65;;;;;;;;;;5019941;28;20026;-79
2023/05/15 00:11:06;;;;;;;3.13;2.63;;;;;;;;;;5022087;28;20029;-78
2023/05/15 00:13:32;;;;;;;4.82;2.53;;;;;;;;;;5020483;28;20021;-79
2023/05/15 00:15:57;;;;;;;4.05;2.90;;;;;;;;;;5021602;28;20127;-79
2023/05/15 00:18:22;;;;;;;3.92;2.55;;;;;;;;;;5021803;28;20081;-79
2023/05/15 00:20:47;;;;;;;4.00;2.67;;;;;;;;;;5022678;28;20033;-78
2023/05/15 00:23:12;;;;;;;4.70;2.40;;;;;;;;;;5021581;28;20267;-78
2023/05/15 00:25:38;;;;;;;4.00;2.50;;;;;;;;;;5021584;28;20028;-79
2023/05/15 00:28:03;;;;;;;3.60;2.53;;;;;;;;;;5019731;28;20344;-79
2023/05/15 00:30:28;;;;;;;3.95;2.70;;;;;;;;;;5020242;28;20267;-79
2023/05/15 00:32:54;;;;;;;3.63;2.53;;;;;;;;;;5018890;28;20037;-77
2023/05/15 00:35:19;;;;;;;5.28;2.70;;;;;;;;;;5022395;28;20017;-79
2023/05/15 00:37:44;;;;;;;3.83;2.57;;;;;;;;;;5022984;28;20029;-79
2023/05/15 00:40:11;;;;;;;4.00;2.70;;;;;;;;;;5022109;28;20286;-78
2023/05/15 00:42:37;;;;;;;3.42;2.50;;;;;;;;;;5020497;28;20342;-79
2023/05/15 00:45:04;;;;;;;3.95;2.53;;;;;;;;;;5018451;28;20438;-79
2023/05/15 00:47:32;;;;;;;3.15;2.65;;;;;;;;;;5018216;28;20389;-78
2023/05/15 00:49:57;;;;;;;4.60;2.60;;;;;;;;;;5018280;28;20104;-78
2023/05/15 00:52:23;;;;;;;4.20;2.80;;;;;;;;;;5034729;28;20477;-77
2023/05/15 00:54:48;;;;;;;5.18;2.90;;;;;;;;;;5019230;28;20022;-78
2023/05/15 00:57:14;;;;;;;4.40;2.70;;;;;;;;;;5019393;28;20036;-78
2023/05/15 00:59:42;;;;;;;4.32;2.83;;;;;;;;;;5021222;28;20301;-78
2023/05/15 01:02:07;;;;;;;3.53;2.40;;;;;;;;;;5020496;28;20026;-78
2023/05/15 01:04:32;;;;;;;4.03;2.70;;;;;;;;;;5020744;28;20037;-78
2023/05/15 01:06:58;;;;;;;5.10;2.55;;;;;;;;;;5020265;28;20401;-78
2023/05/15 01:09:24;;;;;;;3.50;2.45;;;;;;;;;;5021055;28;20076;-78
2023/05/15 01:11:52;;;;;;;5.70;2.60;;;;;;;;;;5020808;28;20021;-79
2023/05/15 01:14:18;;;;;;;4.13;2.75;;;;;;;;;;5019896;28;20396;-79
2023/05/15 01:16:43;;;;;;;4.03;2.55;;;;;;;;;;5020306;28;20120;-79
2023/05/15 01:19:08;;;;;;;5.63;2.20;;;;;;;;;;5035761;28;20071;-79
2023/05/15 01:22:08;;;;;;;3.78;2.58;;;;;;;;;;5021233;28;20025;-79
2023/05/15 01:24:52;;;;;;;3.25;2.28;;;;;;;;;;5020494;28;20022;-79
2023/05/15 01:27:25;;;;;;;4.00;2.30;;;;;;;;;;5019707;28;20043;-79
2023/05/15 01:30:13;;;;;;;2.65;2.13;;;;;;;;;;5020498;28;20022;-79
2023/05/15 01:33:19;;;;;;;2.97;2.30;;;;;;;;;;5019734;28;20028;-79
2023/05/15 01:36:04;;;;;;;4.78;2.30;;;;;;;;;;5020517;28;20029;-79
2023/05/15 01:38:41;;;;;;;3.10;2.40;;;;;;;;;;5021033;28;20048;-79
2023/05/15 01:41:23;;;;;;;3.45;2.28;;;;;;;;;;5021114;28;20213;-78
2023/05/15 01:43:54;;;;;;;3.55;2.40;;;;;;;;;;5020773;28;20030;-79
2023/05/15 01:46:22;;;;;;;4.15;2.40;;;;;;;;;;5020576;28;20064;-79
2023/05/15 01:48:49;;;;;;;4.47;2.35;;;;;;;;;;5020591;28;20481;-79
2023/05/15 01:51:16;;;;;;;3.45;2.10;;;;;;;;;;5019489;28;20029;-79
2023/05/15 01:53:43;;;;;;;2.50;2.10;;;;;;;;;;5020173;28;20025;-78
2023/05/15 01:56:12;;;;;;;3.05;2.03;;;;;;;;;;5019601;28;20026;-78
2023/05/15 01:58:39;;;;;;;3.67;2.05;;;;;;;;;;5018347;28;20513;-78
2023/05/15 02:01:05;;;;;;;4.93;1.75;;;;;;;;;;5016585;28;20505;-79
2023/05/15 02:03:34;;;;;;;3.85;2.13;;;;;;;;;;5018577;28;20030;-78
2023/05/15 02:06:04;;;;;;;4.10;2.00;;;;;;;;;;5017504;28;20120;-79
2023/05/15 02:08:31;;;;;;;2.90;2.00;;;;;;;;;;5017441;28;20030;-79
2023/05/15 02:10:59;;;;;;;4.28;1.90;;;;;;;;;;5018709;28;20092;-79
2023/05/15 02:13:25;;;;;;;3.88;2.10;;;;;;;;;;5019969;28;20018;-79
2023/05/15 02:15:51;;;;;;;3.05;2.40;;;;;;;;;;5019378;28;20022;-79
2023/05/15 02:18:16;;;;;;;4.30;2.40;;;;;;;;;;5020182;28;20017;-79
2023/05/15 02:20:41;;;;;;;2.75;2.20;;;;;;;;;;5019244;28;20026;-78
2023/05/15 02:23:06;;;;;;;4.50;2.50;;;;;;;;;;5018393;28;20028;-79
2023/05/15 02:25:41;;;;;;;5.57;2.27;;;;;;;;;;5019061;28;20112;-78
2023/05/15 02:28:12;;;;;;;3.45;2.50;;;;;;;;;;5016940;28;20270;-78
2023/05/15 02:30:48;;;;;;;5.30;2.42;;;;;;;;;;5019353;28;20080;-78
2023/05/15 02:33:27;;;;;;;3.97;2.47;;;;;;;;;;5017582;28;20448;-79
2023/05/15 02:36:00;;;;;;;3.60;2.50;;;;;;;;;;5019756;28;20029;-79
2023/05/15 02:38:34;;;;;;;3.13;2.40;;;;;;;;;;5019277;28;20072;-79
2023/05/15 02:40:59;;;;;;;3.42;2.80;;;;;;;;;;5019170;28;20036;-77
2023/05/15 02:43:25;;;;;;;3.50;2.50;;;;;;;;;;5035577;28;20026;-79
2023/05/15 02:45:51;;;;;;;4.15;2.90;;;;;;;;;;5019488;28;20394;-79
2023/05/15 02:48:17;;;;;;;4.72;3.17;;;;;;;;;;5018789;28;20447;-79
2023/05/15 02:50:43;;;;;;;4.15;2.78;;;;;;;;;;5017666;28;20112;-80
2023/05/15 02:53:09;;;;;;;3.85;2.80;;;;;;;;;;5018387;28;20089;-79
2023/05/15 02:55:35;;;;;;;5.30;3.20;;;;;;;;;;5018497;28;20481;-78
2023/05/15 02:58:01;;;;;;;5.05;3.05;;;;;;;;;;5016768;28;20060;-79
2023/05/15 03:00:27;;;;;;;3.47;2.80;;;;;;;;;;5015977;28;20478;-78
2023/05/15 03:02:52;;;;;;;4.18;2.72;;;;;;;;;;5016812;28;20064;-79
2023/05/15 03:05:17;;;;;;;4.32;2.90;;;;;;;;;;5016325;28;20026;-79
2023/05/15 03:07:43;;;;;;;4.53;3.10;;;;;;;;;;4985222;28;978657;-79
2023/05/15 03:10:08;;;;;;;6.95;2.65;;;;;;;;;;5018154;28;20055;-78
2023/05/15 03:12:33;;;;;;;3.33;2.60;;;;;;;;;;5032803;28;20034;-79
2023/05/15 03:15:00;;;;;;;3.90;2.83;;;;;;;;;;5017458;28;20477;-78
2023/05/15 03:17:25;;;;;;;7.20;2.88;;;;;;;;;;5019231;28;20026;-78
2023/05/15 03:19:51;;;;;;;3.70;2.95;;;;;;;;;;5018200;28;20030;-78
2023/05/15 03:22:16;;;;;;;7.03;2.80;;;;;;;;;;5017314;28;20038;-78
2023/05/15 03:24:41;;;;;;;3.40;2.50;;;;;;;;;;5019531;28;20291;-78
2023/05/15 03:27:06;;;;;;;4.00;2.75;;;;;;;;;;5019401;28;20255;-77
2023/05/15 03:29:32;;;;;;;4.13;2.77;;;;;;;;;;5018044;28;20385;-78
2023/05/15 03:31:57;;;;;;;3.63;2.70;;;;;;;;;;5018040;28;20616;-78
2023/05/15 03:34:22;;;;;;;4.25;2.70;;;;;;;;;;5015523;28;20504;-78
2023/05/15 03:36:47;;;;;;;4.25;2.95;;;;;;;;;;5015628;28;20018;-78
2023/05/15 03:39:12;;;;;;;4.70;2.70;;;;;;;;;;5018246;28;20033;-80
2023/05/15 03:41:38;;;;;;;3.83;2.83;;;;;;;;;;5019673;28;20255;-77
2023/05/15 03:44:03;;;;;;;3.97;2.90;;;;;;;;;;5019310;28;20275;-80
2023/05/15 03:46:28;;;;;;;4.57;2.65;;;;;;;;;;5017015;28;20267;-78
2023/05/15 03:48:54;;;;;;;3.13;2.30;;;;;;;;;;5018237;28;20101;-79
2023/05/15 03:51:20;;;;;;;4.15;2.65;;;;;;;;;;5018345;28;20026;-79
2023/05/15 03:53:46;;;;;;;5.72;2.80;;;;;;;;;;5018284;28;20041;-79
2023/05/15 03:56:11;;;;;;;3.70;2.50;;;;;;;;;;5018733;28;20022;-79
2023/05/15 03:58:36;;;;;;;3.50;2.42;;;;;;;;;;5019204;28;20068;-79
2023/05/15 04:01:01;;;;;;;3.67;2.67;;;;;;;;;;5033905;28;20509;-79
2023/05/15 04:03:26;;;;;;;3.97;2.40;;;;;;;;;;5017375;28;20287;-79
2023/05/15 04:05:52;;;;;;;4.17;2.53;;;;;;;;;;5018650;28;20730;-79
2023/05/15 04:08:17;;;;;;;4.72;2.33;;;;;;;;;;5021495;28;20733;-79
2023/05/15 04:10:42;;;;;;;3.20;2.47;;;;;;;;;;5022754;28;20030;-78
2023/05/15 04:13:07;;;;;;;3.97;2.43;;;;;;;;;;5022214;28;20029;-78
2023/05/15 04:15:34;;;;;;;4.70;2.83;;;;;;;;;;5022168;28;20339;-78
2023/05/15 04:17:59;;;;;;;4.18;2.90;;;;;;;;;;5018824;28;20678;-78
2023/05/15 04:20:24;;;;;;;4.72;2.45;;;;;;;;;;5034676;28;20030;-78
2023/05/15 04:22:51;;;;;;;5.03;2.78;;;;;;;;;;5021650;28;20022;-78
2023/05/15 04:25:17;;;;;;;2.90;2.55;;;;;;;;;;5021770;28;20064;-78
2023/05/15 04:27:43;;;;;;;4.00;2.65;;;;;;;;;;5021276;28;20152;-77
2023/05/15 04:30:09;;;;;;;3.20;2.70;;;;;;;;;;5022526;28;20021;-78
2023/05/15 04:32:35;;;;;;;6.55;2.70;;;;;;;;;;5021746;28;20086;-78
2023/05/15 04:35:01;;;;;;;4.13;3.05;;;;;;;;;;5022053;28;20017;-77
2023/05/15 04:37:27;;;;;;;4.10;2.92;;;;;;;;;;5021550;28;20461;-79
2023/05/15 04:39:52;;;;;;;3.75;2.85;;;;;;;;;;5021520;28;20030;-78
2023/05/15 04:42:17;;;;;;;3.88;2.92;;;;;;;;;;5021580;28;20093;-79
2023/05/15 04:44:43;;;;;;;4.40;3.47;;;;;;;;;;5036963;28;20030;-78
2023/05/15 04:47:09;;;;;;;4.95;2.92;;;;;;;;;;5020875;28;20255;-79
2023/05/15 04:49:34;;;;;;;3.40;3.05;;;;;;;;;;5036304;28;20030;-78
2023/05/15 04:51:59;;;;;;;5.25;3.42;;;;;;;;;;5020828;28;20025;-77
2023/05/15 04:54:24;;;;;;;3.85;3.05;;;;;;;;;;5020692;28;20112;-79
2023/05/15 04:56:49;;;;;;;5.20;3.23;;;;;;;;;;5019458;28;20025;-78
2023/05/15 04:59:16;;;;;;;4.97;3.30;;;;;;;;;;5021000;28;20298;-77
2023/05/15 05:01:41;;;;;;;4.22;3.35;;;;;;;;;;5021581;28;20643;-78
2023/05/15 05:04:07;;;;;;;8.43;3.50;;;;;;;;;;5021666;28;20030;-79
2023/05/15 05:06:32;;;;;;;4.10;3.20;;;;;;;;;;5020671;28;20033;-80
2023/05/15 05:08:57;;;;;;;4.70;3.50;;;;;;;;;;5022610;28;20259;-79
2023/05/15 05:11:23;;;;;;;4.23;3.30;;;;;;;;;;5021919;28;20274;-78
2023/05/15 05:13:48;;;;;;;6.67;3.30;;;;;;;;;;5020510;28;20287;-78
2023/05/15 05:16:14;;;;;;;4.10;3.40;;;;;;;;;;5019560;28;20260;-80
2023/05/15 05:18:39;;;;;;;5.00;3.30;;;;;;;;;;5021655;28;20022;-79
2023/05/15 05:21:05;;;;;;;5.57;3.35;;;;;;;;;;5021903;28;20042;-79
2023/05/15 05:23:30;;;;;;;10.40;3.80;;;;;;;;;;5023360;28;20046;-79
2023/05/15 05:25:55;;;;;;;5.40;3.75;;;;;;;;;;5022985;28;20393;-78
2023/05/15 05:28:21;;;;;;;4.82;3.55;;;;;;;;;;5021361;28;20046;-79
2023/05/15 05:30:47;;;;;;;5.05;3.58;;;;;;;;;;5021801;28;20458;-78
2023/05/15 05:33:13;;;;;;;5.63;3.55;;;;;;;;;;5020014;28;20086;-78
2023/05/15 05:35:38;;;;;;;5.55;3.85;;;;;;;;;;5020003;28;20389;-78
2023/05/15 05:38:03;;;;;;;6.30;3.97;;;;;;;;;;5020253;28;20486;-78
2023/05/15 05:40:29;;;;;;;9.60;3.60;;;;;;;;;;5020293;28;20036;-79
2023/05/15 05:42:54;;;;;;;6.97;3.67;;;;;;;;;;5020311;28;20025;-79
2023/05/15 05:45:19;;;;;;;5.90;4.35;;;;;;;;;;5018655;28;20030;-78
2023/05/15 05:48:02;;;;;;;6.68;4.00;;;;;;;;;;5019336;28;20025;-79
2023/05/15 05:50:28;;;;;;;5.63;3.20;;;;;;;;;;5018131;28;20477;-79
2023/05/15 05:52:53;;;;;;;3.60;3.00;;;;;;;;;;5019344;28;20025;-79
2023/05/15 05:55:18;;;;;;;4.97;3.40;;;;;;;;;;5018791;28;20034;-79
2023/05/15 05:57:43;;;;;;;8.02;3.50;;;;;;;;;;5034149;28;20758;-78
2023/05/15 06:00:10;;;;;;;5.22;3.55;;;;;;;;;;5018418;28;20101;-78
2023/05/15 06:02:39;;;;;;;7.07;3.50;;;;;;;;;;5016956;28;20097;-79
2023/05/15 06:05:05;;;;;;;5.20;3.63;;;;;;;;;;5017943;28;20087;-79
2023/05/15 06:07:30;;;;;;;5.18;3.53;;;;;;;;;;5016796;28;20026;-78
2023/05/15 06:09:56;;;;;;;6.88;3.33;;;;;;;;;;5016861;28;20021;-78
2023/05/15 06:12:21;;;;;;;7.03;3.63;;;;;;;;;;5016321;28;20100;-80
2023/05/15 06:14:46;;;;;;;7.80;4.03;;;;;;;;;;5016917;28;20385;-78
2023/05/15 06:17:12;;;;;;;5.82;3.95;;;;;;;;;;5033028;28;20264;-78
2023/05/15 06:19:37;;;;;;;4.97;3.90;;;;;;;;;;5017343;28;20057;-77
2023/05/15 06:22:02;;;;;;;4.97;3.80;;;;;;;;;;5018167;28;20042;-79
2023/05/15 06:24:27;;;;;;;6.78;3.65;;;;;;;;;;5018315;28;20333;-79
2023/05/15 06:26:53;;;;;;;6.43;4.50;;;;;;;;;;5018837;28;20022;-78
2023/05/15 06:29:18;;;;;;;5.43;4.25;;;;;;;;;;5017145;28;20248;-79
2023/05/15 06:31:43;;;;;;;6.45;4.35;;;;;;;;;;5017648;28;20060;-79
2023/05/15 06:34:08;;;;;;;6.30;4.00;;;;;;;;;;5019274;28;20026;-79
2023/05/15 06:36:34;;;;;;;6.70;4.00;;;;;;;;;;5016623;28;20263;-78
2023/05/15 06:38:59;;;;;;;6.95;4.57;;;;;;;;;;5017134;28;20267;-77
2023/05/15 06:41:24;;;;;;;4.88;3.70;;;;;;;;;;5016262;28;20030;-78
2023/05/15 06:43:50;;;;;;;7.10;4.37;;;;;;;;;;5017988;28;20026;-79
2023/05/15 06:46:17;;;;;;;5.50;4.20;;;;;;;;;;5017195;28;20342;-79
2023/05/15 06:48:43;;;;;;;4.70;3.67;;;;;;;;;;5018223;28;20263;-78
2023/05/15 06:51:08;;;;;;;5.15;4.13;;;;;;;;;;5017475;28;20021;-79
2023/05/15 06:53:44;;;;;;;6.20;4.38;;;;;;;;;;5018096;28;20049;-81
2023/05/15 06:56:09;;;;;;;5.57;4.22;;;;;;;;;;5018296;28;20030;-79
2023/05/15 06:58:34;;;;;;;7.43;3.90;;;;;;;;;;5017875;28;20036;-78
2023/05/15 07:01:02;;;;;;;5.93;4.47;;;;;;;;;;5019790;28;20262;-80
2023/05/15 07:03:27;;;;;;;7.10;4.20;;;;;;;;;;5019279;28;20755;-80
2023/05/15 07:05:53;;;;;;;6.93;4.35;;;;;;;;;;5017812;28;20032;-80
2023/05/15 07:08:18;;;;;;;5.07;4.30;;;;;;;;;;5015965;28;20487;-79
2023/05/15 07:10:43;;;;;;;7.78;4.50;;;;;;;;;;5015522;28;20778;-80
2023/05/15 07:13:09;;;;;;;5.80;4.40;;;;;;;;;;5015258;28;20045;-79
2023/05/15 07:15:34;;;;;;;5.63;4.30;;;;;;;;;;5016660;28;20255;-79
2023/05/15 07:17:59;;;;;;;7.18;4.80;;;;;;;;;;5017343;28;20025;-80
2023/05/15 07:20:25;;;;;;;6.33;4.60;;;;;;;;;;5017195;28;20041;-80
2023/05/15 07:22:50;;;;;;;6.28;4.35;;;;;;;;;;5017467;28;20263;-79
2023/05/15 07:25:15;;;;;;;5.90;4.50;;;;;;;;;;5017598;28;20072;-79
2023/05/15 07:27:40;;;;;;;11.23;4.82;;;;;;;;;;5017699;28;20267;-81
2023/05/15 07:30:06;;;;;;;7.77;4.30;;;;;;;;;;5016990;28;20068;-80
2023/05/15 07:32:32;;;;;;;6.75;4.95;;;;;;;;;;5016778;28;20313;-80
2023/05/15 07:34:58;;;;;;;7.43;4.47;;;;;;;;;;5017552;28;20030;-78
2023/05/15 07:37:24;;;;;;;6.28;4.18;;;;;;;;;;5015583;28;20026;-81
2023/05/15 07:39:49;;;;;;;7.40;4.15;;;;;;;;;;5017253;28;20022;-79
2023/05/15 07:42:14;;;;;;;6.43;4.00;;;;;;;;;;5017727;28;20026;-79
2023/05/15 07:44:39;;;;;;;9.70;4.40;;;;;;;;;;5019331;28;20283;-80
2023/05/15 07:47:05;;;;;;;8.57;4.20;;;;;;;;;;5019794;28;20112;-80
2023/05/15 07:49:30;;;;;;;9.82;4.28;;;;;;;;;;5019747;28;20314;-79
2023/05/15 07:51:55;;;;;;;7.35;4.00;;;;;;;;;;5021158;28;20398;-80
2023/05/15 07:54:21;;;;;;;5.57;4.07;;;;;;;;;;5035850;28;20085;-79
2023/05/15 07:56:46;;;;;;;9.00;4.00;;;;;;;;;;5020732;28;20026;-80
2023/05/15 07:59:11;;;;;;;6.05;3.90;;;;;;;;;;5020849;28;20022;-80
2023/05/15 08:01:37;;;;;;;13.25;3.75;;;;;;;;;;5021010;28;20061;-80
2023/05/15 08:04:06;;;;;;;5.80;4.28;;;;;;;;;;5021234;28;20409;-80
2023/05/15 08:06:31;;;;;;;9.98;4.18;;;;;;;;;;5021109;28;20085;-79
2023/05/15 08:08:57;;;;;;;12.23;4.70;;;;;;;;;;5020374;28;20441;-78
2023/05/15 08:11:22;;;;;;;7.55;4.32;;;;;;;;;;5020951;28;20029;-79
2023/05/15 08:13:47;;;;;;;5.63;3.93;;;;;;;;;;5020425;28;20433;-80
2023/05/15 08:16:12;;;;;;;5.20;4.20;;;;;;;;;;5020519;28;20677;-79
2023/05/15 08:18:38;;;;;;;5.00;4.13;;;;;;;;;;5020119;28;20623;-80
2023/05/15 08:21:03;;;;;;;9.93;4.50;;;;;;;;;;5020132;28;20631;-79
2023/05/15 08:23:28;;;;;;;5.37;4.00;;;;;;;;;;5020746;28;20266;-79
2023/05/15 08:25:53;;;;;;;9.95;4.72;;;;;;;;;;5020030;28;20631;-79
2023/05/15 08:28:18;;;;;;;7.43;4.20;;;;;;;;;;5020169;28;20022;-79
2023/05/15 08:30:44;;;;;;;8.07;3.83;;;;;;;;;;5019632;28;20251;-78
2023/05/15 08:33:09;;;;;;;9.05;3.83;;;;;;;;;;5020413;28;20297;-80
2023/05/15 08:35:34;;;;;;;5.60;4.47;;;;;;;;;;5020987;28;20081;-78
2023/05/15 08:37:59;;;;;;;8.00;4.13;;;;;;;;;;5018868;28;20275;-79
2023/05/15 08:40:25;;;;;;;8.82;4.15;;;;;;;;;;5019741;28;20053;-80
2023/05/15 08:42:54;;;;;;;5.13;3.78;;;;;;;;;;5019814;28;20026;-80
2023/05/15 08:45:20;;;;;;;7.10;4.47;;;;;;;;;;5034775;28;20026;-79
2023/05/15 08:47:45;;;;;;;8.70;4.25;;;;;;;;;;5020253;28;20104;-79
2023/05/15 08:50:13;;;;;;;7.38;4.53;;;;;;;;;;5020117;28;20022;-78
2023/05/15 08:52:46;;;;;;;6.70;4.05;;;;;;;;;;5018129;28;20026;-79
2023/05/15 08:55:13;;;;;;;5.10;4.13;;;;;;;;;;5019333;28;20018;-81
2023/05/15 08:57:42;;;;;;;6.20;4.32;;;;;;;;;;5019361;28;20056;-77
2023/05/15 09:00:13;;;;;;;6.05;4.30;;;;;;;;;;5019697;28;20026;-82
2023/05/15 09:02:39;;;;;;;6.65;4.32;;;;;;;;;;5017850;28;20117;-79
2023/05/15 09:05:05;;;;;;;9.02;4.30;;;;;;;;;;5019939;28;20026;-80
2023/05/15 09:07:31;;;;;;;9.38;4.38;;;;;;;;;;5035767;28;20036;-80
2023/05/15 09:09:58;;;;;;;8.40;4.68;;;;;;;;;;5018503;28;20037;-81
2023/05/15 09:12:25;;;;;;;6.65;4.70;;;;;;;;;;5017602;28;20048;-80
2023/05/15 09:14:50;;;;;;;6.72;4.60;;;;;;;;;;5020053;28;20029;-79
2023/05/15 09:17:15;;;;;;;7.07;4.40;;;;;;;;;;5019459;28;20044;-81
2023/05/15 09:19:42;;;;;;;6.00;4.38;;;;;;;;;;5019235;28;20088;-81
2023/05/15 09:22:22;;;;;;;5.68;4.18;;;;;;;;;;5018707;28;20486;-80
2023/05/15 09:24:50;;;;;;;8.73;4.13;;;;;;;;;;5032097;28;20400;-80
2023/05/15 09:27:15;;;;;;;6.93;4.40;;;;;;;;;;5016412;28;20025;-80
2023/05/15 09:29:41;;;;;;;5.65;4.30;;;;;;;;;;5015873;28;20033;-79
2023/05/15 09:32:14;;;;;;;6.32;4.47;;;;;;;;;;5016831;28;20034;-80
2023/05/15 09:34:41;;;;;;;6.03;4.93;;;;;;;;;;5017327;28;20022;-80
2023/05/15 09:37:09;;;;;;;5.97;4.47;;;;;;;;;;5015996;28;20172;-81
2023/05/15 09:39:42;;;;;;;5.28;4.18;;;;;;;;;;5016925;28;20396;-79
2023/05/15 09:42:10;;;;;;;9.98;4.22;;;;;;;;;;5016195;28;20022;-81
2023/05/15 09:44:43;;;;;;;6.03;4.40;;;;;;;;;;5017781;28;20037;-81
2023/05/15 09:47:10;;;;;;;8.00;5.20;;;;;;;;;;5018697;28;20492;-80
2023/05/15 09:49:35;;;;;;;5.72;4.47;;;;;;;;;;5018310;28;20057;-79
2023/05/15 09:52:01;;;;;;;6.35;4.90;;;;;;;;;;5017841;28;20033;-80
2023/05/15 09:54:28;;;;;;;9.38;4.90;;;;;;;;;;5018494;28;20073;-80
2023/05/15 09:56:54;;;;;;;10.77;5.45;;;;;;;;;;5018865;28;20034;-80
2023/05/15 09:59:23;;;;;;;8.48;5.22;;;;;;;;;;5020488;28;20033;-81
2023/05/15 10:01:50;;;;;;;6.10;4.47;;;;;;;;;;5019510;28;20026;-81
2023/05/15 10:04:16;;;;;;;6.75;4.75;;;;;;;;;;5020859;28;20025;-80
2023/05/15 10:06:44;;;;;;;6.65;4.70;;;;;;;;;;5017918;28;20029;-81
2023/05/15 10:09:11;;;;;;;7.15;4.78;;;;;;;;;;5017553;28;20026;-80
2023/05/15 10:11:38;;;;;;;9.07;4.50;;;;;;;;;;5018024;28;20044;-79
2023/05/15 10:14:08;;;;;;;6.40;4.80;;;;;;;;;;5016988;28;20026;-79
2023/05/15 10:16:36;;;;;;;8.45;5.18;;;;;;;;;;5017473;28;20022;-79
2023/05/15 10:19:08;;;;;;;10.77;4.50;;;;;;;;;;5018329;28;20033;-79
2023/05/15 10:21:36;;;;;;;5.93;4.68;;;;;;;;;;5018059;28;20021;-80
2023/05/15 10:24:03;;;;;;;7.10;4.43;;;;;;;;;;5017797;28;20374;-79
2023/05/15 10:26:38;;;;;;;8.23;4.30;;;;;;;;;;5018098;28;20026;-80
2023/05/15 10:29:13;;;;;;;5.53;4.30;;;;;;;;;;5018388;28;20040;-79
2023/05/15 10:31:40;;;;;;;5.75;3.85;;;;;;;;;;5018032;28;20064;-80
2023/05/15 10:34:08;;;;;;;7.30;3.72;;;;;;;;;;5016186;28;20446;-80
2023/05/15 10:36:35;;;;;;;5.80;3.83;;;;;;;;;;5018070;28;20379;-80
2023/05/15 10:39:03;;;;;;;12.10;4.00;;;;;;;;;;5017603;28;20437;-79
2023/05/15 10:41:29;;;;;;;7.00;3.92;;;;;;;;;;5017956;28;20030;-79
2023/05/15 10:43:57;;;;;;;5.80;4.05;;;;;;;;;;5017354;28;20057;-79
2023/05/15 10:46:23;;;;;;;5.20;3.53;;;;;;;;;;5018330;28;20026;-79
2023/05/15 10:48:49;;;;;;;6.53;3.90;;;;;;;;;;5018391;28;20044;-79
2023/05/15 10:51:26;;;;;;;5.47;3.45;;;;;;;;;;5017835;28;20025;-80
2023/05/15 10:53:52;;;;;;;6.78;3.80;;;;;;;;;;5017495;28;20489;-80
2023/05/15 10:56:18;;;;;;;5.07;3.58;;;;;;;;;;5018220;28;20030;-80
2023/05/15 10:58:48;;;;;;;4.90;3.70;;;;;;;;;;5017717;28;20065;-80
2023/05/15 11:01:32;;;;;;;4.10;3.50;;;;;;;;;;5017548;28;20038;-80
2023/05/15 11:04:09;;;;;;;6.45;3.70;;;;;;;;;;5016184;28;20109;-80
2023/05/15 11:06:35;;;;;;;4.82;3.53;;;;;;;;;;5017642;28;20117;-79
2023/05/15 11:09:25;;;;;;;8.95;3.40;;;;;;;;;;5016214;28;20033;-79
2023/05/15 11:11:54;;;;;;;4.22;3.22;;;;;;;;;;5032331;28;20021;-81
2023/05/15 11:14:20;;;;;;;6.63;3.70;;;;;;;;;;5017805;28;20022;-78
2023/05/15 11:16:52;;;;;;;4.47;3.50;;;;;;;;;;5018307;28;20064;-80
2023/05/15 11:19:36;;;;;;;5.38;3.78;;;;;;;;;;5037055;28;20029;-80
2023/05/15 11:22:07;;;;;;;;;;;;;;;;;;5023623;28;20541;-79
2023/05/15 11:24:47;;;;;;;11.38;3.45;;;;;;;;;;5023625;28;19913;-79
2023/05/15 11:27:19;;;;;;;5.45;3.60;;;;;;;;;;5021722;28;20030;-80
2023/05/15 11:30:07;;;;;;;11.77;4.45;;;;;;;;;;5021742;28;20064;-80
2023/05/15 11:32:45;;;;;;;5.10;3.72;;;;;;;;;;5021946;28;20030;-80
2023/05/15 11:35:21;;;;;;;4.13;3.42;;;;;;;;;;5021561;28;20041;-80
2023/05/15 11:37:49;;;;;;;5.13;3.65;;;;;;;;;;5021361;28;20057;-77
2023/05/15 11:40:18;;;;;;;4.68;3.53;;;;;;;;;;5021446;28;20547;-80
2023/05/15 11:43:01;;;;;;;6.15;3.70;;;;;;;;;;5021825;28;20037;-80
2023/05/15 11:45:29;;;;;;;4.38;3.97;;;;;;;;;;5021547;28;20052;-79
2023/05/15 11:47:54;;;;;;;7.72;3.63;;;;;;;;;;5021392;28;20029;-81
2023/05/15 11:50:20;;;;;;;5.35;3.60;;;;;;;;;;5036125;28;20116;-82
2023/05/15 11:52:47;;;;;;;5.93;4.20;;;;;;;;;;5019931;28;20228;-80
2023/05/15 11:55:13;;;;;;;5.13;3.90;;;;;;;;;;5021161;28;20092;-80
2023/05/15 11:57:39;;;;;;;6.50;4.22;;;;;;;;;;5021239;28;20469;-79
2023/05/15 12:00:05;;;;;;;5.35;4.07;;;;;;;;;;5021266;28;20105;-80
2023/05/15 12:02:30;;;;;;;5.57;4.10;;;;;;;;;;5019706;28;20396;-80
2023/05/15 12:04:55;;;;;;;9.87;4.27;;;;;;;;;;5022002;28;20033;-80
2023/05/15 12:07:21;;;;;;;11.93;4.43;;;;;;;;;;5021020;28;20267;-79
2023/05/15 12:09:51;;;;;;;9.57;3.90;;;;;;;;;;5020989;28;20277;-79
2023/05/15 12:12:16;;;;;;;6.95;4.45;;;;;;;;;;5021036;28;20561;-80
2023/05/15 12:14:42;;;;;;;8.27;4.60;;;;;;;;;;5021367;28;20045;-80
2023/05/15 12:17:07;;;;;;;6.88;4.80;;;;;;;;;;5020345;28;20034;-79
2023/05/15 12:19:33;;;;;;;6.93;4.40;;;;;;;;;;5020653;28;20049;-79
2023/05/15 12:21:59;;;;;;;5.82;4.38;;;;;;;;;;5020502;28;20122;-81
2023/05/15 12:24:25;;;;;;;6.03;4.30;;;;;;;;;;5035371;28;20088;-81
2023/05/15 12:26:50;;;;;;;7.05;4.95;;;;;;;;;;5020662;28;20064;-80
2023/05/15 12:29:16;;;;;;;6.30;4.40;;;;;;;;;;5019992;28;20022;-79
2023/05/15 12:31:41;;;;;;;6.40;4.70;;;;;;;;;;5020871;28;20080;-80
2023/05/15 12:34:08;;;;;;;6.32;4.82;;;;;;;;;;5020772;28;20033;-80
2023/05/15 12:36:33;;;;;;;6.80;4.50;;;;;;;;;;5020606;28;20065;-81
2023/05/15 12:39:04;;;;;;;10.02;4.95;;;;;;;;;;5021057;28;20026;-79
2023/05/15 12:41:30;;;;;;;10.10;4.60;;;;;;;;;;5023032;28;20089;-81
2023/05/15 12:43:55;;;;;;;6.28;4.55;;;;;;;;;;5020315;28;20069;-80
2023/05/15 12:46:23;;;;;;;8.73;4.90;;;;;;;;;;5019438;28;20485;-79
2023/05/15 12:48:48;;;;;;;8.63;4.50;;;;;;;;;;5020102;28;20026;-80
2023/05/15 12:51:15;;;;;;;6.28;4.53;;;;;;;;;;5018958;28;20024;-79
2023/05/15 12:53:41;;;;;;;6.45;4.20;;;;;;;;;;5021077;28;20042;-79
2023/05/15 12:56:08;;;;;;;7.28;4.50;;;;;;;;;;5024044;28;20033;-79
2023/05/15 12:58:33;;;;;;;7.22;4.40;;;;;;;;;;5017860;28;20048;-79
2023/05/15 13:00:58;;;;;;;7.33;4.53;;;;;;;;;;5015664;28;20525;-79
2023/05/15 13:03:24;;;;;;;7.88;4.22;;;;;;;;;;5032655;28;20279;-80
2023/05/15 13:05:51;;;;;;;7.43;4.40;;;;;;;;;;5018392;28;20025;-79
2023/05/15 13:08:17;;;;;;;8.55;4.80;;;;;;;;;;5017220;28;20060;-79
2023/05/15 13:10:43;;;;;;;8.18;4.57;;;;;;;;;;5018932;28;20026;-79
2023/05/15 13:13:08;;;;;;;9.70;4.55;;;;;;;;;;5019362;28;20493;-80
2023/05/15 13:15:36;;;;;;;6.80;4.28;;;;;;;;;;5019726;28;20029;-80
2023/05/15 13:18:12;;;;;;;10.15;4.82;;;;;;;;;;5019495;28;20112;-79
2023/05/15 13:20:46;;;;;;;71.75;8.02;;;;;;;;;;5019501;28;20032;-80
2023/05/15 13:23:17;;;;;;;21.90;7.18;;;;;;;;;;5018319;28;20030;-81
2023/05/15 13:25:42;;;;;;;14.05;6.75;;;;;;;;;;5017844;28;20103;-80
2023/05/15 13:28:12;;;;;;;14.02;6.38;;;;;;;;;;5018054;28;20038;-79
2023/05/15 13:30:40;;;;;;;16.85;8.20;;;;;;;;;;5019127;28;20030;-80
2023/05/15 13:33:06;;;;;;;25.73;8.52;;;;;;;;;;5018766;28;20026;-79
2023/05/15 13:35:32;;;;;;;27.10;9.25;;;;;;;;;;5018941;28;20026;-79
2023/05/15 13:37:57;;;;;;;17.55;9.18;;;;;;;;;;5017195;28;20043;-80
2023/05/15 13:40:22;;;;;;;14.57;8.57;;;;;;;;;;5032725;28;20408;-79
2023/05/15 13:42:48;;;;;;;12.30;8.43;;;;;;;;;;5017836;28;20267;-80
2023/05/15 13:45:15;;;;;;;15.27;9.55;;;;;;;;;;5019076;28;20029;-80
2023/05/15 13:47:41;;;;;;;11.25;7.90;;;;;;;;;;5021860;28;20497;-79
2023/05/15 13:50:08;;;;;;;11.60;8.32;;;;;;;;;;5020846;28;20037;-80
2023/05/15 13:52:34;;;;;;;17.15;9.57;;;;;;;;;;5020259;28;20101;-80
2023/05/15 13:54:59;;;;;;;12.25;8.68;;;;;;;;;;5021761;28;20025;-79
2023/05/15 13:57:25;;;;;;;13.95;9.10;;;;;;;;;;5020958;28;20022;-80
2023/05/15 13:59:50;;;;;;;15.38;9.43;;;;;;;;;;5021369;28;20029;-81
2023/05/15 14:02:16;;;;;;;14.18;10.02;;;;;;;;;;5021085;28;20022;-80
2023/05/15 14:04:41;;;;;;;17.27;11.77;;;;;;;;;;5022713;28;20025;-80
2023/05/15 14:07:06;;;;;;;15.47;11.07;;;;;;;;;;5022727;28;20032;-80
2023/05/15 14:09:31;;;;;;;19.40;11.88;;;;;;;;;;5024250;28;20680;-79
2023/05/15 14:11:57;;;;;;;12.77;10.93;;;;;;;;;;5023771;28;20026;-81
2023/05/15 14:14:22;;;;;;;14.90;11.00;;;;;;;;;;5020138;28;20298;-81
2023/05/15 14:16:47;;;;;;;16.63;10.90;;;;;;;;;;5018680;28;20346;-81
2023/05/15 14:19:12;;;;;;;15.35;10.45;;;;;;;;;;5017888;28;20041;-81
2023/05/15 14:21:38;;;;;;;13.50;11.10;;;;;;;;;;5019061;28;20030;-79
2023/05/15 14:24:04;;;;;;;17.73;11.20;;;;;;;;;;5017957;28;20286;-79
2023/05/15 14:26:29;;;;;;;11.73;10.52;;;;;;;;;;5018833;28;20026;-79
2023/05/15 14:28:55;;;;;;;11.90;10.60;;;;;;;;;;5018227;28;20028;-81
2023/05/15 14:31:20;;;;;;;13.27;11.05;;;;;;;;;;5017915;28;20022;-79
2023/05/15 14:33:45;;;;;;;13.27;11.20;;;;;;;;;;5018773;28;20500;-79
2023/05/15 14:36:10;;;;;;;13.57;10.77;;;;;;;;;;5018393;28;20743;-80
2023/05/15 14:38:37;;;;;;;14.93;9.83;;;;;;;;;;5018062;28;20265;-80
2023/05/15 14:41:02;;;;;;;11.10;9.90;;;;;;;;;;5017787;28;20265;-80